Time;durP1;ratioP1;P1;durP2;ratioP2;P2;SDS_P1;SDS_P2;PMS_P1;PMS_P2;Temp;Humidity;BMP_temperature;BMP_pressure;BME280_temperature;BME280_humidity;BME280_pressure;Samples;Min_cycle;Max_cycle;Signal;HPM_P1;HPM_P2
2022/06/29 00:00:29;;;;;;;38.03;11.23;;;23.80;99.90;;;;;;5110930;28;20051;-71
2022/06/29 00:03:32;;;;;;;53.85;11.48;;;23.80;99.90;;;;;;5110997;28;20062;-71
2022/06/29 00:06:37;;;;;;;41.70;11.60;;;23.90;99.90;;;;;;5110973;28;20501;-70
2022/06/29 00:09:41;;;;;;;47.25;11.48;;;23.80;99.90;;;;;;5111321;28;20058;-71
2022/06/29 00:12:47;;;;;;;44.30;11.35;;;23.70;99.90;;;;;;5111273;28;20500;-71
2022/06/29 00:15:51;;;;;;;44.58;12.05;;;23.70;99.90;;;;;;5111226;28;20489;-71
2022/06/29 00:18:55;;;;;;;43.13;10.82;;;23.50;99.90;;;;;;5098573;28;20051;-71
2022/06/29 00:21:59;;;;;;;45.30;11.27;;;23.50;99.90;;;;;;5111179;28;20051;-71
2022/06/29 00:25:04;;;;;;;44.10;10.25;;;23.50;99.90;;;;;;5111341;28;20042;-71
2022/06/29 00:28:08;;;;;;;35.25;9.80;;;23.60;99.90;;;;;;5110861;28;20156;-71
2022/06/29 00:31:12;;;;;;;35.30;9.52;;;23.70;99.90;;;;;;5110730;28;20039;-71
2022/06/29 00:34:16;;;;;;;38.05;10.98;;;23.70;99.90;;;;;;5114226;28;20579;-71
2022/06/29 00:37:20;;;;;;;36.50;9.45;;;23.70;99.90;;;;;;5114894;28;20034;-71
2022/06/29 00:40:23;;;;;;;48.50;11.52;;;23.70;99.90;;;;;;5114897;28;20035;-71
2022/06/29 00:43:28;;;;;;;37.85;10.82;;;23.70;99.90;;;;;;5115066;28;20050;-71
2022/06/29 00:46:32;;;;;;;36.92;10.57;;;23.70;99.90;;;;;;5114323;28;20039;-70
2022/06/29 00:49:35;;;;;;;36.97;9.20;;;23.60;99.90;;;;;;5114722;28;20047;-71
2022/06/29 00:52:42;;;;;;;33.03;8.50;;;23.60;99.90;;;;;;5114471;28;20046;-71
2022/06/29 00:55:49;;;;;;;42.92;10.32;;;23.60;99.90;;;;;;5114804;28;20055;-71
2022/06/29 00:59:02;;;;;;;37.28;9.60;;;23.60;99.90;;;;;;5101899;28;20062;-71
2022/06/29 01:02:06;;;;;;;31.27;8.55;;;23.60;99.90;;;;;;5114451;28;20047;-71
2022/06/29 01:05:10;;;;;;;33.67;8.88;;;23.60;99.90;;;;;;5114718;28;20049;-71
2022/06/29 01:08:14;;;;;;;36.28;8.98;;;23.60;99.90;;;;;;5114000;28;20065;-71
2022/06/29 01:11:18;;;;;;;34.38;9.65;;;23.60;99.90;;;;;;5114591;28;20043;-71
2022/06/29 01:14:23;;;;;;;34.53;8.73;;;23.40;99.90;;;;;;5101237;28;20043;-71
2022/06/29 01:17:27;;;;;;;31.17;9.75;;;23.40;99.90;;;;;;5114008;28;20051;-70
2022/06/29 01:20:30;;;;;;;42.78;9.65;;;23.40;99.90;;;;;;5114274;28;20050;-70
2022/06/29 01:23:34;;;;;;;41.10;9.98;;;23.30;99.90;;;;;;5101653;28;20038;-72
2022/06/29 01:26:38;;;;;;;33.40;9.15;;;23.20;99.90;;;;;;5113949;28;20465;-70
2022/06/29 01:29:43;;;;;;;30.77;9.25;;;23.10;99.90;;;;;;5113977;28;20313;-70
2022/06/29 01:32:47;;;;;;;32.22;9.70;;;23.10;99.90;;;;;;5114118;28;20047;-71
2022/06/29 01:35:52;;;;;;;32.22;7.70;;;23.00;99.90;;;;;;5113725;28;20063;-71
2022/06/29 01:38:56;;;;;;;40.55;10.20;;;23.00;99.90;;;;;;5114068;28;20050;-71
2022/06/29 01:42:00;;;;;;;33.78;8.77;;;22.90;99.90;;;;;;5114096;28;20051;-71
2022/06/29 01:45:05;;;;;;;39.33;7.68;;;22.80;99.90;;;;;;5112360;28;20398;-71
2022/06/29 01:48:09;;;;;;;33.60;8.85;;;22.80;99.90;;;;;;5113492;28;20047;-71
2022/06/29 01:51:13;;;;;;;34.05;8.13;;;22.70;99.90;;;;;;5113598;28;20063;-71
2022/06/29 01:54:17;;;;;;;29.45;8.75;;;22.70;99.90;;;;;;5113564;28;20038;-71
2022/06/29 01:57:21;;;;;;;30.63;7.63;;;22.60;99.90;;;;;;5113492;28;20046;-69
2022/06/29 02:00:25;;;;;;;23.67;7.43;;;22.60;99.90;;;;;;5113200;28;20074;-71
2022/06/29 02:03:29;;;;;;;34.50;7.72;;;22.50;99.90;;;;;;5113523;28;20042;-71
2022/06/29 02:06:33;;;;;;;27.98;7.28;;;22.50;99.90;;;;;;5112492;28;20054;-72
2022/06/29 02:09:37;;;;;;;32.47;7.13;;;22.40;99.90;;;;;;5113202;28;20038;-72
2022/06/29 02:12:41;;;;;;;25.25;7.22;;;22.30;99.90;;;;;;5113118;28;20027;-71
2022/06/29 02:15:45;;;;;;;28.45;7.38;;;22.30;99.90;;;;;;5113151;28;20038;-71
2022/06/29 02:18:49;;;;;;;37.30;8.80;;;22.30;99.90;;;;;;5112973;28;20051;-71
2022/06/29 02:21:53;;;;;;;33.08;8.07;;;22.30;99.90;;;;;;5100477;28;20043;-71
2022/06/29 02:24:57;;;;;;;28.30;7.60;;;22.20;99.90;;;;;;5113186;28;20046;-70
2022/06/29 02:28:01;;;;;;;41.13;9.00;;;22.10;99.90;;;;;;5112565;28;20046;-71
2022/06/29 02:34:46;;;;;;;26.55;6.65;;;21.90;99.90;;;;;;5113084;28;20474;-71
2022/06/29 02:37:50;;;;;;;32.25;8.13;;;21.90;99.90;;;;;;5112510;28;20038;-71
2022/06/29 02:40:54;;;;;;;31.90;7.68;;;21.90;99.90;;;;;;5113104;28;20042;-71
2022/06/29 02:43:58;;;;;;;25.77;8.30;;;21.90;99.90;;;;;;5112499;28;20201;-71
2022/06/29 02:47:03;;;;;;;34.63;7.20;;;21.90;99.90;;;;;;5112221;28;20070;-71
2022/06/29 02:50:07;;;;;;;21.50;6.35;;;21.80;99.90;;;;;;5111786;28;20043;-70
2022/06/29 02:53:11;;;;;;;28.58;7.35;;;21.60;99.90;;;;;;5112547;28;20042;-70
2022/06/29 02:56:15;;;;;;;21.05;5.35;;;21.50;99.90;;;;;;5112138;28;20054;-70
2022/06/29 02:59:20;;;;;;;25.30;5.90;;;21.40;99.90;;;;;;5112547;28;20046;-70
2022/06/29 03:02:24;;;;;;;24.30;5.75;;;21.40;99.90;;;;;;5112005;28;20054;-70
2022/06/29 03:05:28;;;;;;;23.40;6.28;;;21.40;99.90;;;;;;5112438;28;20049;-69
2022/06/29 03:08:33;;;;;;;26.25;5.72;;;21.40;99.90;;;;;;5112029;28;20051;-69
2022/06/29 03:11:38;;;;;;;23.00;4.90;;;21.40;99.90;;;;;;5112365;28;20039;-70
2022/06/29 03:14:42;;;;;;;22.20;4.90;;;21.40;99.90;;;;;;5112159;28;20500;-71
2022/06/29 03:17:46;;;;;;;17.27;4.55;;;21.50;99.90;;;;;;5111415;28;20313;-70
2022/06/29 03:20:50;;;;;;;30.38;6.05;;;21.50;99.90;;;;;;5112257;28;20046;-71
2022/06/29 03:23:54;;;;;;;19.92;4.80;;;21.50;99.90;;;;;;5111913;28;20051;-71
2022/06/29 03:26:58;;;;;;;15.52;4.63;;;21.40;99.90;;;;;;5111374;28;20046;-70
2022/06/29 03:30:03;;;;;;;18.17;4.07;;;21.30;99.90;;;;;;5111795;28;20050;-70
2022/06/29 03:33:07;;;;;;;17.65;4.53;;;21.20;99.90;;;;;;5111312;28;20046;-70
2022/06/29 03:36:12;;;;;;;15.10;4.10;;;21.20;99.90;;;;;;5111999;28;20046;-70
2022/06/29 03:39:15;;;;;;;23.88;4.47;;;21.10;99.90;;;;;;5111481;28;20046;-71
2022/06/29 03:42:19;;;;;;;15.63;3.78;;;21.10;99.90;;;;;;5111546;28;20390;-70
2022/06/29 03:45:23;;;;;;;26.40;4.03;;;21.00;99.90;;;;;;5111225;28;20054;-70
2022/06/29 03:48:27;;;;;;;16.05;3.58;;;21.10;99.90;;;;;;5111745;28;20042;-70
2022/06/29 03:51:31;;;;;;;18.42;4.60;;;21.00;99.90;;;;;;5111202;28;20043;-71
2022/06/29 03:54:35;;;;;;;15.30;4.03;;;21.10;99.90;;;;;;5098783;28;20046;-70
2022/06/29 03:57:39;;;;;;;18.30;4.15;;;21.10;99.90;;;;;;5111282;28;20042;-71
2022/06/29 04:00:43;;;;;;;17.70;4.47;;;21.20;99.90;;;;;;5111156;28;20390;-71
2022/06/29 04:03:46;;;;;;;17.33;4.55;;;21.30;99.90;;;;;;5111757;28;20505;-71
2022/06/29 04:06:50;;;;;;;22.50;5.45;;;21.30;99.90;;;;;;5111313;28;20043;-70
2022/06/29 04:09:59;;;;;;;21.58;4.57;;;21.30;99.90;;;;;;5110788;28;20054;-71
2022/06/29 04:13:03;;;;;;;20.80;4.40;;;21.30;99.90;;;;;;5112093;28;20446;-71
2022/06/29 04:16:08;;;;;;;21.42;4.70;;;21.40;99.90;;;;;;5111275;28;20051;-70
2022/06/29 04:19:12;;;;;;;14.57;3.85;;;21.40;99.90;;;;;;5111255;28;20058;-70
2022/06/29 04:22:17;;;;;;;19.25;3.35;;;21.50;99.90;;;;;;5111493;28;20536;-70
2022/06/29 04:25:21;;;;;;;15.88;3.80;;;21.50;99.90;;;;;;5110785;28;20054;-71
2022/06/29 04:28:25;;;;;;;22.95;3.97;;;21.60;99.90;;;;;;5111239;28;20054;-70
2022/06/29 04:31:30;;;;;;;17.20;4.35;;;21.70;99.90;;;;;;5110601;28;20050;-70
2022/06/29 04:34:34;;;;;;;14.73;3.22;;;21.80;99.90;;;;;;5111442;28;20390;-70
2022/06/29 04:37:37;;;;;;;12.32;3.53;;;21.80;99.90;;;;;;5110929;28;20492;-71
2022/06/29 04:42:59;;;;;;;10.88;3.20;;;21.80;99.90;;;;;;5129434;27;20390;-55
2022/06/29 04:49:27;;;;;;;15.02;3.47;;;21.80;99.90;;;;;;5127946;28;20038;-54
2022/06/29 04:52:31;;;;;;;17.70;3.08;;;21.80;99.90;;;;;;5120030;28;20044;-54
2022/06/29 04:55:35;;;;;;;12.18;3.10;;;21.80;99.90;;;;;;5113894;22;20041;-47
2022/06/29 04:58:41;;;;;;;14.85;3.10;;;21.90;99.90;;;;;;5066379;28;20044;-47
2022/06/29 05:01:47;;;;;;;12.00;3.28;;;22.00;99.90;;;;;;5066223;28;20043;-46
2022/06/29 05:04:52;;;;;;;12.38;3.50;;;22.20;99.90;;;;;;5066067;28;20508;-47
2022/06/29 05:07:56;;;;;;;19.13;4.78;;;22.40;99.90;;;;;;5065394;28;20032;-46
2022/06/29 05:11:00;;;;;;;21.70;3.72;;;22.50;99.90;;;;;;5066157;28;20039;-45
2022/06/29 05:14:03;;;;;;;13.25;2.75;;;22.70;99.90;;;;;;5065709;28;20129;-49
2022/06/29 05:17:08;;;;;;;16.40;3.15;;;22.80;99.90;;;;;;5065739;28;20040;-48
2022/06/29 05:20:13;;;;;;;13.52;3.58;;;23.00;99.90;;;;;;5065958;28;20047;-47
2022/06/29 05:23:18;;;;;;;13.07;3.95;;;23.20;99.90;;;;;;5066020;28;20064;-47
2022/06/29 05:26:24;;;;;;;14.70;3.25;;;23.40;99.90;;;;;;5065314;28;20052;-47
2022/06/29 05:29:28;;;;;;;10.13;2.90;;;23.50;99.90;;;;;;5066028;28;20043;-45
2022/06/29 05:32:32;;;;;;;15.15;3.60;;;23.40;99.90;;;;;;5065325;28;20048;-46
2022/06/29 05:35:36;;;;;;;14.57;3.25;;;23.40;99.90;;;;;;5065712;28;20397;-52
2022/06/29 05:38:40;;;;;;;11.13;3.50;;;23.50;99.90;;;;;;5065321;28;20043;-46
2022/06/29 05:41:43;;;;;;;18.67;4.15;;;23.60;99.90;;;;;;5065382;28;20039;-47
2022/06/29 05:44:48;;;;;;;16.48;3.63;;;23.70;99.90;;;;;;5065273;28;20051;-47
2022/06/29 05:47:53;;;;;;;10.27;3.35;;;23.60;99.90;;;;;;5065010;28;20036;-45
2022/06/29 05:50:57;;;;;;;15.88;3.28;;;23.40;99.90;;;;;;5065363;28;20043;-46
2022/06/29 05:54:01;;;;;;;10.95;2.78;;;23.20;99.90;;;;;;5053644;28;20048;-48
2022/06/29 05:57:05;;;;;;;15.73;3.58;;;23.20;99.90;;;;;;5051549;28;20052;-49
2022/06/29 06:00:10;;;;;;;16.73;3.67;;;23.20;99.90;;;;;;5052296;28;20521;-49
2022/06/29 06:03:17;;;;;;;12.88;3.40;;;22.90;99.90;;;;;;5052303;28;20048;-49
2022/06/29 06:06:21;;;;;;;13.60;3.53;;;22.60;99.90;;;;;;5051340;28;20409;-47
2022/06/29 06:09:27;;;;;;;13.70;3.47;;;22.60;99.90;;;;;;5047003;28;20060;-47
2022/06/29 06:12:31;;;;;;;16.08;4.03;;;22.50;99.90;;;;;;5050670;28;20532;-49
2022/06/29 06:15:35;;;;;;;15.48;3.80;;;22.10;99.90;;;;;;5051665;28;20523;-50
2022/06/29 06:18:39;;;;;;;11.68;3.08;;;21.80;99.90;;;;;;5038766;28;20052;-49
2022/06/29 06:21:43;;;;;;;21.35;5.43;;;21.90;99.90;;;;;;5031705;28;20068;-49
2022/06/29 06:24:47;;;;;;;16.10;3.67;;;22.20;99.90;;;;;;5031425;28;20060;-51
2022/06/29 06:27:51;;;;;;;19.27;3.85;;;22.70;99.90;;;;;;5034309;28;20040;-47
2022/06/29 06:30:56;;;;;;;21.50;3.97;;;22.90;99.90;;;;;;5045111;28;20044;-46
2022/06/29 06:34:01;;;;;;;18.05;3.53;;;23.20;99.90;;;;;;5042902;28;20028;-47
2022/06/29 06:37:05;;;;;;;10.82;3.05;;;23.80;99.90;;;;;;5042292;28;20408;-47
2022/06/29 06:43:32;;;;;;;13.77;3.00;;;25.10;99.90;;;;;;5031578;28;20045;-47
2022/06/29 06:46:36;;;;;;;10.30;2.80;;;25.30;99.90;;;;;;5030556;28;20040;-47
2022/06/29 06:49:40;;;;;;;15.52;3.55;;;25.40;99.90;;;;;;5036335;28;20041;-47
2022/06/29 06:52:44;;;;;;;14.63;3.20;;;25.30;99.90;;;;;;5042901;28;20044;-48
2022/06/29 06:55:48;;;;;;;12.55;3.70;;;25.00;99.90;;;;;;5043290;28;20056;-47
2022/06/29 06:58:52;;;;;;;15.05;3.47;;;25.30;99.90;;;;;;5043986;28;20055;-46
2022/06/29 07:01:57;;;;;;;15.55;3.50;;;25.40;99.90;;;;;;5050702;28;20048;-47
2022/06/29 07:05:03;;;;;;;20.02;3.33;;;25.20;99.90;;;;;;5047395;28;20052;-47
2022/06/29 07:08:06;;;;;;;15.35;3.92;;;25.10;99.90;;;;;;5037675;28;20128;-47
2022/06/29 07:11:10;;;;;;;17.83;3.50;;;25.00;99.90;;;;;;5041416;28;20099;-47
2022/06/29 07:14:14;;;;;;;13.57;3.47;;;25.20;99.90;;;;;;5041171;28;20409;-51
2022/06/29 07:17:19;;;;;;;14.10;3.35;;;25.50;99.90;;;;;;5041090;28;20508;-50
2022/06/29 07:20:28;;;;;;;12.18;2.92;;;26.00;99.90;;;;;;5044855;28;20056;-47
2022/06/29 07:23:32;;;;;;;15.68;3.17;;;27.00;99.90;;;;;;5044922;28;20044;-47
2022/06/29 07:26:36;;;;;;;12.23;2.72;;;29.20;99.90;;;;;;5035690;28;20037;-49
2022/06/29 07:29:40;;;;;;;13.65;3.78;;;31.60;99.90;;;;;;5040157;28;20043;-49
2022/06/29 07:32:46;;;;;;;11.60;2.90;;;31.00;99.40;;;;;;5038803;28;20044;-48
2022/06/29 07:35:50;;;;;;;8.82;2.80;;;32.60;98.00;;;;;;5038222;28;20057;-48
2022/06/29 07:38:53;;;;;;;10.75;3.60;;;32.40;96.20;;;;;;5039973;28;20038;-47
2022/06/29 07:41:58;;;;;;;10.23;2.40;;;33.80;95.00;;;;;;5044910;28;20047;-49
2022/06/29 07:45:06;;;;;;;11.43;2.13;;;33.80;94.10;;;;;;5041795;28;20048;-48
2022/06/29 07:48:10;;;;;;;13.25;2.55;;;31.90;95.00;;;;;;5041533;28;20784;-47
2022/06/29 07:51:14;;;;;;;11.05;3.28;;;32.20;95.10;;;;;;5043285;28;20036;-46
2022/06/29 07:54:18;;;;;;;12.57;2.80;;;31.20;95.40;;;;;;5040305;28;20467;-47
2022/06/29 07:57:22;;;;;;;11.45;2.70;;;30.30;96.40;;;;;;5029346;28;20052;-47
2022/06/29 08:00:26;;;;;;;10.65;2.95;;;28.70;98.80;;;;;;5032454;28;20417;-49
2022/06/29 08:03:31;;;;;;;10.32;2.83;;;26.90;99.90;;;;;;5041274;28;20048;-46
2022/06/29 08:06:35;;;;;;;13.98;3.20;;;26.60;99.90;;;;;;5038986;28;20064;-48
2022/06/29 08:09:39;;;;;;;10.07;3.38;;;26.40;99.90;;;;;;5042021;28;20056;-49
2022/06/29 08:12:44;;;;;;;15.40;3.30;;;26.20;99.90;;;;;;5042732;28;20048;-47
2022/06/29 08:15:48;;;;;;;12.57;3.45;;;25.90;99.90;;;;;;5046695;28;20080;-46
2022/06/29 08:18:52;;;;;;;15.30;3.72;;;26.60;99.90;;;;;;5029052;28;20052;-48
2022/06/29 08:21:56;;;;;;;10.02;2.97;;;28.10;99.90;;;;;;5034304;28;20048;-49
2022/06/29 08:25:00;;;;;;;6.57;2.00;;;30.60;99.90;;;;;;5044920;28;20410;-50
2022/06/29 08:28:05;;;;;;;8.18;2.38;;;33.10;97.10;;;;;;5036332;28;20017;-51
2022/06/29 08:31:10;;;;;;;11.75;2.85;;;35.40;94.10;;;;;;5039840;28;20040;-49
2022/06/29 08:34:16;;;;;;;14.50;2.75;;;35.90;92.00;;;;;;5034200;28;20040;-50
2022/06/29 08:37:21;;;;;;;9.35;2.25;;;33.50;92.00;;;;;;5040047;28;20028;-48
2022/06/29 08:40:29;;;;;;;14.23;3.05;;;33.00;93.30;;;;;;5043700;28;20052;-48
2022/06/29 08:43:33;;;;;;;11.98;2.78;;;34.20;92.70;;;;;;5029204;28;20041;-48
2022/06/29 08:46:37;;;;;;;13.30;2.72;;;34.70;92.00;;;;;;5038785;28;20399;-53
2022/06/29 08:49:44;;;;;;;9.90;3.25;;;34.40;91.40;;;;;;5030866;28;20043;-49
2022/06/29 08:52:48;;;;;;;7.95;2.95;;;37.60;88.50;;;;;;5029662;28;20046;-49
2022/06/29 08:55:55;;;;;;;9.13;2.28;;;38.40;86.30;;;;;;5038598;28;20052;-53
2022/06/29 08:59:02;;;;;;;8.15;1.83;;;38.40;85.90;;;;;;5034393;28;20045;-51
2022/06/29 09:02:07;;;;;;;10.02;3.08;;;38.60;83.80;;;;;;5039454;28;20041;-49
2022/06/29 09:05:12;;;;;;;7.25;1.80;;;39.40;82.90;;;;;;5041809;28;20036;-50
2022/06/29 09:08:19;;;;;;;9.40;2.45;;;36.70;82.50;;;;;;5040829;28;20040;-50
2022/06/29 09:11:28;;;;;;;11.45;2.15;;;35.70;84.40;;;;;;5032866;28;20038;-48
2022/06/29 09:14:33;;;;;;;12.35;2.30;;;34.40;86.10;;;;;;5040785;28;20064;-54
2022/06/29 09:17:39;;;;;;;6.45;2.42;;;32.70;88.90;;;;;;5063004;28;20032;-51
2022/06/29 09:20:43;;;;;;;10.63;2.47;;;33.10;90.00;;;;;;5036185;28;20029;-48
2022/06/29 09:23:47;;;;;;;38.17;4.00;;;35.10;88.00;;;;;;5043865;28;20524;-52
2022/06/29 09:26:54;;;;;;;14.63;2.58;;;38.60;84.20;;;;;;5055120;28;20044;-49
2022/06/29 09:29:58;;;;;;;10.02;2.67;;;40.40;79.70;;;;;;5036764;28;20044;-49
2022/06/29 09:33:07;;;;;;;8.65;2.63;;;39.00;79.80;;;;;;5043742;28;20413;-50
2022/06/29 09:36:17;;;;;;;13.52;2.00;;;36.80;80.60;;;;;;5045265;28;20123;-48
2022/06/29 09:39:37;;;;;;;10.05;2.63;;;36.40;82.60;;;;;;5047902;28;20432;-51
2022/06/29 09:42:41;;;;;;;10.00;2.58;;;35.90;81.30;;;;;;5045064;28;20048;-52
2022/06/29 09:45:46;;;;;;;7.93;2.33;;;34.00;84.60;;;;;;5044466;28;20568;-47
2022/06/29 09:48:52;;;;;;;11.68;2.67;;;33.30;85.20;;;;;;5048436;28;20041;-49
2022/06/29 09:51:57;;;;;;;10.70;3.03;;;32.30;87.80;;;;;;5040029;28;20074;-48
2022/06/29 09:55:02;;;;;;;9.07;2.45;;;31.30;89.10;;;;;;5043456;28;20052;-48
2022/06/29 09:58:08;;;;;;;8.38;2.55;;;31.10;90.30;;;;;;5040253;28;20049;-47
2022/06/29 10:04:38;;;;;;;11.38;2.30;;;31.60;90.10;;;;;;5045093;28;20045;-51
2022/06/29 10:07:44;;;;;;;7.45;2.25;;;33.50;86.80;;;;;;5036371;28;20052;-49
2022/06/29 10:10:52;;;;;;;9.30;2.30;;;33.20;86.50;;;;;;5029647;28;20041;-53
2022/06/29 10:14:03;;;;;;;10.98;2.55;;;32.70;86.60;;;;;;5038726;28;20052;-48
2022/06/29 10:17:20;;;;;;;11.68;2.15;;;31.80;89.60;;;;;;5047213;28;20043;-49
2022/06/29 10:20:35;;;;;;;10.88;2.72;;;31.40;90.00;;;;;;5044151;28;20040;-49
2022/06/29 10:23:51;;;;;;;13.57;2.17;;;30.90;90.70;;;;;;5040050;28;20049;-46
2022/06/29 10:26:54;;;;;;;12.52;2.53;;;30.90;90.90;;;;;;5034175;28;20087;-51
2022/06/29 10:30:18;;;;;;;15.48;2.83;;;30.50;91.40;;;;;;5035330;28;20048;-47
2022/06/29 10:33:35;;;;;;;12.52;4.18;;;30.60;91.20;;;;;;5036062;28;20041;-47
2022/06/29 10:37:00;;;;;;;13.85;3.15;;;31.50;90.90;;;;;;5041968;28;20040;-49
2022/06/29 10:40:04;;;;;;;17.45;2.83;;;33.10;89.20;;;;;;5031698;28;20521;-49
2022/06/29 10:43:20;;;;;;;14.02;2.47;;;33.40;87.70;;;;;;5043251;28;20048;-48
2022/06/29 10:46:24;;;;;;;10.82;2.85;;;34.00;86.00;;;;;;5043047;28;20373;-48
2022/06/29 10:49:28;;;;;;;13.98;2.72;;;33.70;86.60;;;;;;5039719;28;20037;-50
2022/06/29 10:52:33;;;;;;;9.07;2.33;;;33.20;87.30;;;;;;5040440;28;20048;-49
2022/06/29 10:55:46;;;;;;;13.48;2.60;;;32.60;87.10;;;;;;5064782;23;20049;-55
2022/06/29 10:58:50;;;;;;;14.73;2.67;;;33.60;87.10;;;;;;5045984;28;20047;-52
2022/06/29 11:02:11;;;;;;;14.13;2.83;;;35.00;82.90;;;;;;5050483;28;20047;-52
2022/06/29 11:05:15;;;;;;;7.90;2.40;;;34.90;82.30;;;;;;5051358;28;20048;-55
2022/06/29 11:12:01;;;;;;;9.15;3.08;;;31.50;87.90;;;;;;5027422;28;20390;-54
2022/06/29 11:18:32;;;;;;;15.52;3.10;;;31.80;86.80;;;;;;5050482;28;20040;-53
2022/06/29 11:21:36;;;;;;;10.73;2.90;;;32.10;86.60;;;;;;5022603;28;20048;-53
2022/06/29 11:24:55;;;;;;;11.50;2.67;;;32.00;86.80;;;;;;5019226;28;20048;-55
2022/06/29 11:27:59;;;;;;;11.55;2.75;;;32.10;86.90;;;;;;5041084;28;20055;-55
2022/06/29 11:31:05;;;;;;;11.07;2.22;;;33.20;85.80;;;;;;5046023;28;20044;-54
2022/06/29 11:34:09;;;;;;;7.85;2.50;;;33.80;83.30;;;;;;5032302;28;20139;-54
2022/06/29 11:37:13;;;;;;;8.15;2.60;;;32.60;86.10;;;;;;5046028;28;20040;-56
2022/06/29 11:40:35;;;;;;;12.80;2.60;;;32.90;85.30;;;;;;5026804;28;20033;-54
2022/06/29 11:43:40;;;;;;;12.93;2.70;;;33.40;84.70;;;;;;5022271;28;20040;-55
2022/06/29 11:46:46;;;;;;;8.60;1.95;;;35.00;83.50;;;;;;5026254;28;20052;-56
2022/06/29 11:49:50;;;;;;;9.48;2.45;;;36.50;80.60;;;;;;5036087;28;20051;-57
2022/06/29 11:52:54;;;;;;;12.77;2.75;;;36.90;79.30;;;;;;5039565;28;20072;-55
2022/06/29 11:55:58;;;;;;;11.35;3.10;;;36.30;79.40;;;;;;5044189;28;20052;-55
2022/06/29 11:59:06;;;;;;;13.45;3.00;;;35.40;80.40;;;;;;5049150;28;20051;-53
2022/06/29 12:02:11;;;;;;;13.00;2.45;;;35.40;79.40;;;;;;5010634;28;20045;-56
2022/06/29 12:05:15;;;;;;;9.45;2.13;;;34.90;80.50;;;;;;5039033;28;20040;-54
2022/06/29 12:08:19;;;;;;;11.25;2.22;;;34.90;79.70;;;;;;5037742;28;20038;-53
2022/06/29 12:11:24;;;;;;;8.93;2.72;;;34.70;80.70;;;;;;5048087;28;20052;-54
2022/06/29 12:14:28;;;;;;;9.43;2.30;;;34.30;81.20;;;;;;5017827;28;20048;-55
2022/06/29 12:17:32;;;;;;;10.65;2.67;;;33.80;81.90;;;;;;5029988;28;20058;-55
2022/06/29 12:20:36;;;;;;;10.70;2.45;;;33.90;82.60;;;;;;5041861;28;20048;-55
2022/06/29 12:23:40;;;;;;;10.82;2.50;;;33.40;81.50;;;;;;5050117;28;20048;-53
2022/06/29 12:26:45;;;;;;;9.48;2.40;;;33.30;81.80;;;;;;5016859;28;20045;-53
2022/06/29 12:29:49;;;;;;;9.88;2.58;;;33.90;82.40;;;;;;5033215;28;20040;-54
2022/06/29 12:32:53;;;;;;;10.77;2.15;;;34.00;82.70;;;;;;5028477;28;20525;-56
2022/06/29 12:35:57;;;;;;;12.38;3.13;;;34.30;82.40;;;;;;5028562;28;20040;-57
2022/06/29 12:39:02;;;;;;;9.90;2.60;;;33.00;82.50;;;;;;5049170;28;20048;-55
2022/06/29 12:42:06;;;;;;;11.18;2.50;;;32.80;84.00;;;;;;5046586;28;20410;-54
2022/06/29 12:45:10;;;;;;;7.85;2.40;;;32.80;84.50;;;;;;5040587;28;20497;-53
2022/06/29 12:48:14;;;;;;;10.43;2.63;;;33.00;84.30;;;;;;5009658;28;20053;-53
2022/06/29 12:51:19;;;;;;;8.63;2.20;;;33.10;84.50;;;;;;5026382;28;20048;-55
2022/06/29 12:54:23;;;;;;;12.45;2.95;;;33.50;84.40;;;;;;5034101;28;20045;-53
2022/06/29 12:57:27;;;;;;;10.77;2.42;;;33.70;83.70;;;;;;5038777;28;20040;-53
2022/06/29 13:00:32;;;;;;;10.90;2.53;;;33.70;83.10;;;;;;5024832;28;21351;-57
2022/06/29 13:03:36;;;;;;;13.70;3.03;;;32.10;85.20;;;;;;5030156;28;20040;-55
2022/06/29 13:06:40;;;;;;;11.65;2.60;;;31.70;86.60;;;;;;5030272;28;20040;-54
2022/06/29 13:09:44;;;;;;;8.85;2.17;;;31.90;86.00;;;;;;5030576;28;20414;-56
2022/06/29 13:12:48;;;;;;;9.50;2.15;;;32.80;86.20;;;;;;5030739;28;20033;-54
2022/06/29 13:15:52;;;;;;;14.75;2.45;;;33.50;85.50;;;;;;5033786;28;20050;-56
2022/06/29 13:18:56;;;;;;;11.23;2.72;;;33.80;85.00;;;;;;5033641;28;20040;-54
2022/06/29 13:22:00;;;;;;;10.40;2.63;;;34.10;84.50;;;;;;5030133;28;20319;-53
2022/06/29 13:25:04;;;;;;;12.02;2.42;;;33.70;83.60;;;;;;5028877;28;20037;-54
2022/06/29 13:28:09;;;;;;;9.85;2.67;;;34.10;85.00;;;;;;5027948;28;20497;-57
2022/06/29 13:31:12;;;;;;;9.73;2.40;;;34.40;84.40;;;;;;5028224;28;20038;-54
2022/06/29 13:34:17;;;;;;;14.15;2.58;;;34.40;84.00;;;;;;5032156;28;20048;-54
2022/06/29 13:37:21;;;;;;;14.07;2.58;;;34.30;84.90;;;;;;5025257;28;20512;-54
2022/06/29 13:40:26;;;;;;;10.95;2.63;;;34.50;85.10;;;;;;5032055;28;20037;-57
2022/06/29 13:43:29;;;;;;;9.55;2.70;;;34.70;83.80;;;;;;5029423;28;20040;-53
2022/06/29 13:46:33;;;;;;;11.50;3.10;;;34.10;85.50;;;;;;5026759;28;20034;-56
2022/06/29 13:49:37;;;;;;;15.60;3.47;;;33.60;85.80;;;;;;5027875;28;20060;-53
2022/06/29 13:52:42;;;;;;;8.05;2.95;;;33.50;86.40;;;;;;5027954;28;20056;-51
2022/06/29 13:55:46;;;;;;;11.07;2.63;;;33.10;86.10;;;;;;5029330;28;20037;-52
2022/06/29 13:58:50;;;;;;;11.23;2.40;;;33.50;86.70;;;;;;5027636;28;20048;-58
2022/06/29 14:01:54;;;;;;;11.23;2.60;;;33.10;86.30;;;;;;5028626;28;20540;-53
2022/06/29 14:04:58;;;;;;;9.10;2.75;;;32.70;87.50;;;;;;5029371;28;20041;-54
2022/06/29 14:08:02;;;;;;;15.93;2.92;;;32.70;87.90;;;;;;5029443;28;20041;-53
2022/06/29 14:11:06;;;;;;;7.35;2.70;;;32.70;87.60;;;;;;5032286;28;20117;-55
2022/06/29 14:14:10;;;;;;;9.10;2.60;;;32.90;86.50;;;;;;5031268;28;20037;-53
2022/06/29 14:17:14;;;;;;;13.63;2.38;;;32.50;86.70;;;;;;5031713;28;20099;-55
2022/06/29 14:20:18;;;;;;;11.32;2.63;;;32.80;86.60;;;;;;5032276;28;20046;-53
2022/06/29 14:23:23;;;;;;;10.20;2.67;;;32.90;85.70;;;;;;5031901;28;20041;-55
2022/06/29 14:26:27;;;;;;;8.23;2.50;;;32.80;85.00;;;;;;5031734;28;20049;-54
2022/06/29 14:29:32;;;;;;;6.38;1.85;;;32.10;85.30;;;;;;5031815;28;20033;-53
2022/06/29 14:32:36;;;;;;;7.05;2.03;;;31.70;86.30;;;;;;5032022;28;20038;-54
2022/06/29 14:35:40;;;;;;;7.63;2.58;;;32.00;85.60;;;;;;5031892;28;20104;-54
2022/06/29 14:38:46;;;;;;;5.82;2.25;;;32.10;86.00;;;;;;5032139;28;20057;-54
2022/06/29 14:41:50;;;;;;;12.95;2.55;;;32.30;86.40;;;;;;5031714;28;20053;-57
2022/06/29 14:44:54;;;;;;;6.30;2.35;;;32.60;86.50;;;;;;5031924;28;20441;-54
2022/06/29 14:47:58;;;;;;;21.55;2.70;;;32.40;84.80;;;;;;5031328;28;20041;-51
2022/06/29 14:51:02;;;;;;;4.32;1.83;;;32.40;86.60;;;;;;5029352;28;20048;-53
2022/06/29 14:54:06;;;;;;;7.65;2.05;;;32.20;86.60;;;;;;5031596;28;20060;-52
2022/06/29 14:57:10;;;;;;;12.35;2.10;;;32.30;86.30;;;;;;5030593;28;20066;-55
2022/06/29 15:00:14;;;;;;;7.65;2.47;;;32.20;85.70;;;;;;5030000;28;20040;-53
2022/06/29 15:03:19;;;;;;;7.22;1.80;;;31.80;85.50;;;;;;5023507;28;20040;-52
2022/06/29 15:06:25;;;;;;;12.70;2.38;;;31.80;86.10;;;;;;5023378;28;20422;-57
2022/06/29 15:09:30;;;;;;;10.75;2.25;;;31.90;85.70;;;;;;5026187;28;20041;-57
2022/06/29 15:12:34;;;;;;;5.53;1.83;;;31.60;85.60;;;;;;5031416;28;20040;-52
2022/06/29 15:15:46;;;;;;;5.40;2.45;;;30.90;87.60;;;;;;5031148;28;20053;-54
2022/06/29 15:18:49;;;;;;;6.28;2.13;;;31.20;87.50;;;;;;5031427;28;20045;-56
2022/06/29 15:21:54;;;;;;;6.15;2.13;;;31.20;86.70;;;;;;5031481;28;20033;-53
2022/06/29 15:24:58;;;;;;;5.70;1.98;;;30.30;87.10;;;;;;5031058;28;20048;-54
2022/06/29 15:28:02;;;;;;;5.93;2.05;;;30.30;87.10;;;;;;5030553;28;20048;-54
2022/06/29 15:31:06;;;;;;;11.93;2.53;;;30.60;87.80;;;;;;5031213;28;20415;-55
2022/06/29 15:40:55;;;;;;;6.88;1.98;;;29.90;89.20;;;;;;5030907;28;20057;-55
2022/06/29 15:43:59;;;;;;;3.25;1.80;;;29.50;90.10;;;;;;5030416;28;20041;-52
2022/06/29 15:47:05;;;;;;;7.30;2.42;;;29.50;90.30;;;;;;5029947;28;20403;-53
2022/06/29 15:50:09;;;;;;;5.30;2.15;;;30.00;89.40;;;;;;5030882;28;20036;-55
2022/06/29 15:56:35;;;;;;;6.75;2.08;;;30.30;88.70;;;;;;5029656;28;20048;-51
2022/06/29 15:59:39;;;;;;;6.38;2.17;;;30.10;87.40;;;;;;5030822;28;20040;-52
2022/06/29 16:02:44;;;;;;;6.53;1.90;;;29.60;87.10;;;;;;5030628;28;20541;-54
2022/06/29 16:05:49;;;;;;;4.45;1.90;;;29.70;86.80;;;;;;5030530;28;20045;-57
2022/06/29 16:08:53;;;;;;;9.23;2.15;;;29.50;87.50;;;;;;5030909;28;20040;-55
2022/06/29 16:12:06;;;;;;;7.18;1.95;;;29.80;88.40;;;;;;5030596;28;20048;-54
2022/06/29 16:15:10;;;;;;;10.57;2.20;;;29.80;88.40;;;;;;5030487;28;20045;-54
2022/06/29 16:18:14;;;;;;;4.97;2.08;;;29.70;89.70;;;;;;5029731;28;20052;-56
2022/06/29 16:21:18;;;;;;;5.68;2.38;;;29.70;89.20;;;;;;5030433;28;20060;-52
2022/06/29 16:24:22;;;;;;;5.65;1.88;;;29.80;88.80;;;;;;5029941;28;20041;-53